Time;durP1;ratioP1;P1;durP2;ratioP2;P2;SDS_P1;SDS_P2;PMS_P1;PMS_P2;Temp;Humidity;BMP_temperature;BMP_pressure;BME280_temperature;BME280_humidity;BME280_pressure;Samples;Min_cycle;Max_cycle;Signal;HPM_P1;HPM_P2
2021/12/06 00:02:10;;;;;;;53.53;28.15;;;;;;;;;;5057883;28;20051;-81
2021/12/06 00:04:37;;;;;;;62.35;28.65;;;;;;;;;;5057987;28;20074;-81
2021/12/06 00:07:06;;;;;;;71.10;28.80;;;;;;;;;;5058006;28;20044;-81
2021/12/06 00:09:32;;;;;;;49.80;24.17;;;;;;;;;;5040221;28;20067;-81
2021/12/06 00:12:01;;;;;;;50.20;22.42;;;;;;;;;;5039763;28;20076;-83
2021/12/06 00:14:29;;;;;;;41.65;21.52;;;;;;;;;;5057529;28;20044;-82
2021/12/06 00:16:59;;;;;;;39.90;20.25;;;;;;;;;;5057226;28;20076;-82
2021/12/06 00:19:26;;;;;;;36.80;20.08;;;;;;;;;;5039940;28;20029;-82
2021/12/06 00:21:52;;;;;;;35.35;19.38;;;;;;;;;;5039870;28;20124;-83
2021/12/06 00:24:18;;;;;;;33.20;19.80;;;;;;;;;;5057831;28;20108;-82
2021/12/06 00:26:44;;;;;;;29.60;18.33;;;;;;;;;;5057803;28;20490;-82
2021/12/06 00:29:11;;;;;;;29.67;18.52;;;;;;;;;;5057552;28;20057;-82
2021/12/06 00:31:37;;;;;;;32.50;19.90;;;;;;;;;;5056082;28;20140;-82
2021/12/06 00:34:07;;;;;;;33.47;19.75;;;;;;;;;;5056547;28;20024;-82
2021/12/06 00:36:34;;;;;;;34.33;20.48;;;;;;;;;;5039417;28;20435;-82
2021/12/06 00:39:01;;;;;;;30.75;18.83;;;;;;;;;;5057322;28;20074;-82
2021/12/06 00:41:27;;;;;;;36.00;20.52;;;;;;;;;;5057298;28;20159;-82
2021/12/06 00:43:54;;;;;;;30.67;19.80;;;;;;;;;;5057133;28;20036;-81
2021/12/06 00:46:20;;;;;;;31.63;19.55;;;;;;;;;;5057342;28;20028;-82
2021/12/06 00:48:46;;;;;;;34.45;20.40;;;;;;;;;;5057280;28;20025;-82
2021/12/06 00:51:15;;;;;;;33.03;21.00;;;;;;;;;;5057500;28;20318;-83
2021/12/06 00:53:41;;;;;;;34.10;20.77;;;;;;;;;;5057521;28;20032;-82
2021/12/06 00:56:07;;;;;;;33.42;21.88;;;;;;;;;;5057306;28;20422;-82
2021/12/06 00:58:33;;;;;;;33.72;21.65;;;;;;;;;;5057016;28;20029;-82
2021/12/06 01:00:59;;;;;;;36.20;21.02;;;;;;;;;;5057300;28;20091;-82
2021/12/06 01:03:29;;;;;;;33.58;21.65;;;;;;;;;;5055053;28;20132;-82
2021/12/06 01:05:55;;;;;;;34.78;20.60;;;;;;;;;;5056904;28;20025;-82
2021/12/06 01:08:21;;;;;;;34.40;21.73;;;;;;;;;;5055513;28;20448;-82
2021/12/06 01:10:48;;;;;;;37.33;23.02;;;;;;;;;;5056906;28;20422;-82
2021/12/06 01:13:14;;;;;;;35.80;22.73;;;;;;;;;;5056898;28;20369;-82
2021/12/06 01:15:41;;;;;;;35.05;22.33;;;;;;;;;;5057203;28;20021;-82
2021/12/06 01:18:08;;;;;;;30.52;20.50;;;;;;;;;;5056911;28;20025;-81
2021/12/06 01:20:41;;;;;;;30.95;19.73;;;;;;;;;;5057014;28;20039;-81
2021/12/06 01:23:11;;;;;;;34.03;20.20;;;;;;;;;;5056503;28;20025;-81
2021/12/06 01:25:52;;;;;;;33.13;19.92;;;;;;;;;;5056807;28;20056;-81
2021/12/06 01:34:07;;;;;;;34.58;21.55;;;;;;;;;;5060897;28;20025;-82
2021/12/06 01:39:18;;;;;;;44.28;27.05;;;;;;;;;;5060868;28;20481;-82
2021/12/06 01:41:49;;;;;;;50.53;27.58;;;;;;;;;;5060536;28;20051;-82
2021/12/06 01:44:16;;;;;;;49.72;28.38;;;;;;;;;;5061003;28;20029;-82
2021/12/06 01:46:45;;;;;;;47.80;28.80;;;;;;;;;;5060581;28;20112;-82
2021/12/06 01:49:11;;;;;;;46.75;28.13;;;;;;;;;;5060619;28;20051;-83
2021/12/06 01:51:38;;;;;;;48.15;30.35;;;;;;;;;;5060534;28;20021;-82
2021/12/06 01:54:06;;;;;;;49.13;29.08;;;;;;;;;;5060601;28;20024;-82
2021/12/06 01:56:32;;;;;;;46.60;30.08;;;;;;;;;;5060514;28;20045;-83
2021/12/06 01:58:58;;;;;;;48.83;29.98;;;;;;;;;;5059045;28;20021;-83
2021/12/06 02:01:24;;;;;;;49.95;30.38;;;;;;;;;;5059348;28;20124;-83
2021/12/06 02:03:50;;;;;;;50.17;30.63;;;;;;;;;;5058827;28;20327;-83
2021/12/06 02:06:16;;;;;;;49.55;29.33;;;;;;;;;;5060347;28;20029;-83
2021/12/06 02:08:42;;;;;;;46.45;28.92;;;;;;;;;;5060416;28;20032;-84
2021/12/06 02:11:31;;;;;;;47.70;29.10;;;;;;;;;;5060265;28;20025;-83
2021/12/06 02:17:00;;;;;;;45.17;28.05;;;;;;;;;;5060693;28;20466;-83
2021/12/06 02:19:31;;;;;;;45.13;28.00;;;;;;;;;;5075816;28;20025;-84
2021/12/06 02:21:58;;;;;;;51.17;29.15;;;;;;;;;;5059927;28;20039;-83
2021/12/06 02:24:24;;;;;;;45.78;29.17;;;;;;;;;;5060148;28;20029;-83
2021/12/06 02:26:51;;;;;;;41.28;27.13;;;;;;;;;;5059332;28;20040;-82
2021/12/06 02:29:19;;;;;;;45.83;27.33;;;;;;;;;;5059729;28;20454;-83
2021/12/06 02:31:45;;;;;;;43.40;27.25;;;;;;;;;;5059385;28;20418;-83
2021/12/06 02:34:12;;;;;;;42.13;26.63;;;;;;;;;;5058759;28;20052;-83
2021/12/06 02:36:38;;;;;;;40.00;25.92;;;;;;;;;;5058701;28;20358;-83
2021/12/06 02:39:08;;;;;;;41.60;25.75;;;;;;;;;;5058969;28;20032;-83
2021/12/06 02:41:35;;;;;;;40.58;24.85;;;;;;;;;;5058110;28;20084;-82
2021/12/06 02:44:01;;;;;;;39.35;24.17;;;;;;;;;;5059855;28;20025;-83
2021/12/06 02:46:27;;;;;;;40.15;24.45;;;;;;;;;;5059562;28;20025;-83
2021/12/06 02:48:53;;;;;;;39.53;24.63;;;;;;;;;;5073907;28;20131;-83
2021/12/06 02:51:20;;;;;;;39.90;24.83;;;;;;;;;;5059522;28;20029;-83
2021/12/06 02:53:47;;;;;;;37.40;22.15;;;;;;;;;;5059279;28;20032;-83
2021/12/06 02:56:28;;;;;;;34.00;20.50;;;;;;;;;;5059017;28;20396;-83
2021/12/06 02:58:56;;;;;;;32.80;20.23;;;;;;;;;;5058480;28;20032;-83
2021/12/06 03:01:41;;;;;;;30.33;19.17;;;;;;;;;;5057916;28;20028;-83
2021/12/06 03:04:08;;;;;;;32.92;18.98;;;;;;;;;;5074556;28;20039;-83
2021/12/06 03:06:34;;;;;;;30.02;18.20;;;;;;;;;;5059052;28;20029;-82
2021/12/06 03:09:06;;;;;;;28.58;18.08;;;;;;;;;;5059008;28;20395;-83
2021/12/06 03:11:53;;;;;;;31.02;18.63;;;;;;;;;;5059344;28;20020;-84
2021/12/06 03:14:21;;;;;;;32.17;17.70;;;;;;;;;;5059412;28;20288;-84
2021/12/06 03:16:48;;;;;;;34.72;18.42;;;;;;;;;;5059151;28;20025;-83
2021/12/06 03:19:14;;;;;;;36.60;20.23;;;;;;;;;;5059422;28;20029;-84
2021/12/06 03:21:40;;;;;;;36.55;19.05;;;;;;;;;;5074259;28;20037;-83
2021/12/06 03:24:07;;;;;;;33.83;18.55;;;;;;;;;;5059035;28;20053;-84
2021/12/06 03:26:33;;;;;;;35.22;18.35;;;;;;;;;;5058968;28;20025;-84
2021/12/06 03:29:00;;;;;;;35.60;16.80;;;;;;;;;;5058967;28;20028;-84
2021/12/06 03:31:26;;;;;;;36.33;17.92;;;;;;;;;;5058845;28;20025;-84
2021/12/06 03:33:55;;;;;;;35.42;17.38;;;;;;;;;;5059060;28;20346;-83
2021/12/06 03:36:22;;;;;;;37.95;17.60;;;;;;;;;;5057871;28;20025;-83
2021/12/06 03:38:49;;;;;;;35.42;17.95;;;;;;;;;;5058658;28;20064;-84
2021/12/06 03:41:16;;;;;;;38.22;18.15;;;;;;;;;;5057003;28;20044;-85
2021/12/06 03:43:43;;;;;;;40.30;17.90;;;;;;;;;;5058825;28;20048;-83
2021/12/06 03:46:10;;;;;;;41.22;19.00;;;;;;;;;;5059414;28;20021;-84
2021/12/06 03:48:36;;;;;;;44.05;20.48;;;;;;;;;;5058282;28;20407;-84
2021/12/06 03:51:02;;;;;;;38.95;18.95;;;;;;;;;;5057661;28;20308;-84
2021/12/06 03:53:29;;;;;;;37.10;18.15;;;;;;;;;;5058384;28;20021;-84
2021/12/06 03:56:14;;;;;;;38.30;18.70;;;;;;;;;;5073717;28;20103;-84
2021/12/06 03:58:43;;;;;;;34.13;17.88;;;;;;;;;;5058455;28;20029;-84
2021/12/06 04:01:09;;;;;;;33.78;17.35;;;;;;;;;;5058165;28;20032;-85
2021/12/06 04:03:36;;;;;;;32.60;17.52;;;;;;;;;;5073530;28;20127;-84
2021/12/06 04:06:04;;;;;;;33.90;18.40;;;;;;;;;;5058482;28;20100;-84
2021/12/06 04:08:30;;;;;;;31.48;16.98;;;;;;;;;;5058424;28;20029;-84
2021/12/06 04:17:03;;;;;;;32.58;16.73;;;;;;;;;;5058197;28;20036;-85
2021/12/06 04:19:29;;;;;;;30.35;18.20;;;;;;;;;;5058168;28;20029;-85
2021/12/06 04:21:56;;;;;;;28.33;16.88;;;;;;;;;;5057992;28;20033;-85
2021/12/06 04:24:23;;;;;;;36.42;18.67;;;;;;;;;;5058197;28;20358;-85
2021/12/06 04:29:52;;;;;;;29.85;17.30;;;;;;;;;;5037975;28;20048;-84
2021/12/06 04:32:19;;;;;;;30.88;17.75;;;;;;;;;;5052658;28;20125;-84
2021/12/06 04:34:45;;;;;;;31.38;17.95;;;;;;;;;;5037732;28;20490;-84
2021/12/06 04:37:11;;;;;;;31.40;17.08;;;;;;;;;;5037908;28;20057;-86
2021/12/06 04:39:38;;;;;;;28.08;17.05;;;;;;;;;;5053323;28;20025;-84
2021/12/06 04:42:05;;;;;;;32.13;17.77;;;;;;;;;;5071385;28;20096;-85
2021/12/06 04:44:31;;;;;;;32.47;19.65;;;;;;;;;;5057785;28;20025;-85
2021/12/06 04:46:58;;;;;;;32.70;18.42;;;;;;;;;;5056636;28;20021;-84
2021/12/06 04:49:26;;;;;;;33.10;18.90;;;;;;;;;;5057484;28;20399;-84
2021/12/06 04:51:53;;;;;;;31.30;18.58;;;;;;;;;;5056401;28;20040;-85
2021/12/06 04:54:20;;;;;;;34.75;19.48;;;;;;;;;;5056329;28;20028;-84
2021/12/06 05:02:53;;;;;;;32.55;18.13;;;;;;;;;;5054503;28;20035;-83
2021/12/06 05:05:22;;;;;;;31.55;18.42;;;;;;;;;;5057309;28;20021;-84
2021/12/06 05:07:50;;;;;;;29.48;17.77;;;;;;;;;;5057294;28;20036;-83
2021/12/06 05:10:17;;;;;;;30.20;17.70;;;;;;;;;;5057213;28;20314;-84
2021/12/06 05:12:44;;;;;;;32.97;18.60;;;;;;;;;;5056963;28;20021;-83
2021/12/06 05:15:10;;;;;;;30.67;16.90;;;;;;;;;;5057454;28;20096;-83
2021/12/06 05:17:36;;;;;;;27.88;17.20;;;;;;;;;;5072365;28;20027;-84
2021/12/06 05:20:04;;;;;;;22.83;14.43;;;;;;;;;;5056517;28;20037;-83
2021/12/06 05:22:30;;;;;;;25.52;15.55;;;;;;;;;;5056158;28;20017;-84
2021/12/06 05:24:56;;;;;;;21.38;13.20;;;;;;;;;;5056921;28;20112;-84
2021/12/06 05:27:40;;;;;;;23.45;15.45;;;;;;;;;;5057362;28;20029;-84
2021/12/06 05:30:08;;;;;;;20.02;13.45;;;;;;;;;;5072851;28;20397;-84
2021/12/06 05:32:36;;;;;;;19.67;12.18;;;;;;;;;;5057672;28;20078;-84
2021/12/06 05:35:07;;;;;;;19.73;13.27;;;;;;;;;;5055063;28;20037;-83
2021/12/06 05:37:41;;;;;;;17.02;11.70;;;;;;;;;;5056985;28;20342;-83
2021/12/06 05:40:08;;;;;;;16.52;11.25;;;;;;;;;;5056616;28;20307;-83
2021/12/06 05:42:34;;;;;;;17.83;12.07;;;;;;;;;;5055856;28;20049;-83
2021/12/06 05:45:01;;;;;;;18.50;13.23;;;;;;;;;;5056926;28;20021;-83
2021/12/06 05:47:27;;;;;;;21.27;14.20;;;;;;;;;;5056710;28;20457;-83
2021/12/06 05:49:53;;;;;;;29.65;14.98;;;;;;;;;;5057041;28;20051;-84
2021/12/06 05:52:19;;;;;;;23.58;14.80;;;;;;;;;;5056699;28;20086;-84
2021/12/06 05:54:45;;;;;;;21.42;14.80;;;;;;;;;;5056813;28;20152;-84
2021/12/06 05:57:49;;;;;;;29.40;15.93;;;;;;;;;;5056759;28;20087;-84
2021/12/06 06:00:17;;;;;;;22.73;14.68;;;;;;;;;;5056481;28;20032;-84
2021/12/06 06:02:43;;;;;;;33.45;17.30;;;;;;;;;;5056928;28;20071;-84
2021/12/06 06:05:10;;;;;;;21.02;14.88;;;;;;;;;;5055376;28;20021;-84
2021/12/06 06:07:36;;;;;;;30.45;17.13;;;;;;;;;;5056582;28;20041;-84
2021/12/06 06:10:02;;;;;;;40.83;19.58;;;;;;;;;;5056810;28;20032;-84
2021/12/06 06:12:28;;;;;;;44.38;19.40;;;;;;;;;;5056661;28;20021;-84
2021/12/06 06:14:54;;;;;;;38.00;18.70;;;;;;;;;;5059449;28;20108;-83
2021/12/06 06:17:21;;;;;;;42.65;20.58;;;;;;;;;;5060412;28;20029;-84
2021/12/06 06:19:50;;;;;;;38.33;21.55;;;;;;;;;;5060010;28;20037;-82
2021/12/06 06:22:16;;;;;;;34.05;18.75;;;;;;;;;;5060388;28;20049;-84
2021/12/06 06:24:42;;;;;;;32.58;19.80;;;;;;;;;;5075497;28;20037;-84
2021/12/06 06:27:08;;;;;;;33.80;20.42;;;;;;;;;;5060181;28;20036;-84
2021/12/06 06:29:35;;;;;;;31.15;19.38;;;;;;;;;;5060370;28;20029;-85
2021/12/06 06:32:01;;;;;;;36.20;20.42;;;;;;;;;;5075266;28;20026;-84
2021/12/06 06:34:28;;;;;;;37.25;21.27;;;;;;;;;;5075745;28;20064;-85
2021/12/06 06:36:54;;;;;;;43.95;24.92;;;;;;;;;;5074983;28;20025;-84
2021/12/06 06:39:21;;;;;;;54.88;30.90;;;;;;;;;;5058967;28;20025;-83
2021/12/06 06:41:48;;;;;;;55.15;30.33;;;;;;;;;;5059707;28;20049;-84
2021/12/06 06:44:15;;;;;;;37.92;21.95;;;;;;;;;;5057681;28;20339;-84
2021/12/06 06:46:42;;;;;;;30.98;19.17;;;;;;;;;;5059515;28;20070;-83
2021/12/06 06:49:08;;;;;;;34.78;20.33;;;;;;;;;;5049967;28;20037;-84
2021/12/06 06:51:34;;;;;;;30.92;19.88;;;;;;;;;;5072439;28;20048;-84
2021/12/06 06:54:00;;;;;;;29.85;18.70;;;;;;;;;;5057522;28;20041;-84
2021/12/06 06:56:48;;;;;;;38.70;22.45;;;;;;;;;;5059848;28;20017;-84
2021/12/06 06:59:14;;;;;;;43.67;22.98;;;;;;;;;;5059044;28;20021;-83
2021/12/06 07:01:40;;;;;;;42.55;23.33;;;;;;;;;;5059449;28;20021;-83
2021/12/06 07:04:07;;;;;;;47.40;26.02;;;;;;;;;;5059200;28;20033;-83
2021/12/06 07:06:34;;;;;;;38.55;21.55;;;;;;;;;;5059254;28;20033;-84
2021/12/06 07:09:02;;;;;;;34.92;21.33;;;;;;;;;;5056977;28;20029;-83
2021/12/06 07:11:28;;;;;;;46.53;28.67;;;;;;;;;;5059013;28;20021;-83
2021/12/06 07:13:54;;;;;;;58.92;31.92;;;;;;;;;;5058322;28;20120;-84
2021/12/06 07:16:21;;;;;;;45.10;25.85;;;;;;;;;;5058915;28;20415;-83
2021/12/06 07:18:47;;;;;;;39.38;19.92;;;;;;;;;;5059145;28;20024;-83
2021/12/06 07:21:13;;;;;;;40.58;22.05;;;;;;;;;;5058916;28;20104;-84
2021/12/06 07:23:39;;;;;;;42.42;20.52;;;;;;;;;;5058889;28;20052;-82
2021/12/06 07:26:09;;;;;;;56.75;23.35;;;;;;;;;;5058637;28;20071;-83
2021/12/06 07:28:36;;;;;;;64.40;26.25;;;;;;;;;;5057978;28;20025;-84
2021/12/06 07:31:05;;;;;;;35.15;19.75;;;;;;;;;;5058836;28;20151;-83
2021/12/06 07:33:32;;;;;;;59.42;25.60;;;;;;;;;;5058738;28;20478;-83
2021/12/06 07:35:58;;;;;;;57.83;22.55;;;;;;;;;;5059033;28;20017;-84
2021/12/06 07:38:24;;;;;;;47.10;20.80;;;;;;;;;;5057682;28;20446;-84
2021/12/06 07:40:50;;;;;;;81.82;31.38;;;;;;;;;;5057270;28;20083;-84
2021/12/06 07:43:17;;;;;;;74.28;32.80;;;;;;;;;;5057834;28;20024;-84
2021/12/06 07:45:43;;;;;;;40.78;23.48;;;;;;;;;;5058085;28;20032;-84
2021/12/06 07:48:10;;;;;;;40.33;24.42;;;;;;;;;;5056075;28;20036;-84
2021/12/06 07:50:36;;;;;;;50.45;28.08;;;;;;;;;;5074019;28;20028;-84
2021/12/06 07:53:02;;;;;;;32.88;20.10;;;;;;;;;;5058582;28;20052;-84
2021/12/06 07:55:31;;;;;;;32.25;21.98;;;;;;;;;;5058398;28;20021;-84
2021/12/06 07:58:15;;;;;;;32.55;20.60;;;;;;;;;;5058463;28;20415;-84
2021/12/06 08:00:44;;;;;;;31.15;20.17;;;;;;;;;;5058556;28;20036;-84
2021/12/06 08:03:11;;;;;;;166.82;66.57;;;;;;;;;;5057992;28;20025;-84
2021/12/06 08:05:39;;;;;;;125.22;55.25;;;;;;;;;;5056828;28;20029;-84
2021/12/06 08:08:09;;;;;;;83.00;41.45;;;;;;;;;;5058088;28;20036;-85
2021/12/06 08:10:37;;;;;;;35.65;22.50;;;;;;;;;;5061111;28;20033;-85
2021/12/06 08:13:04;;;;;;;29.35;19.33;;;;;;;;;;5058061;28;20025;-83
2021/12/06 08:15:30;;;;;;;37.42;24.27;;;;;;;;;;5057042;28;20025;-83
2021/12/06 08:17:56;;;;;;;37.45;23.00;;;;;;;;;;5058010;28;20433;-82
2021/12/06 08:20:22;;;;;;;73.13;29.80;;;;;;;;;;5058129;28;20375;-84
2021/12/06 08:22:48;;;;;;;66.75;34.15;;;;;;;;;;5058003;28;20044;-86
2021/12/06 08:25:15;;;;;;;47.25;26.90;;;;;;;;;;5057667;28;20049;-85
2021/12/06 08:27:41;;;;;;;47.47;26.63;;;;;;;;;;5058189;28;20029;-85
2021/12/06 08:30:09;;;;;;;60.63;32.20;;;;;;;;;;5055869;28;20029;-85
2021/12/06 08:32:35;;;;;;;25.35;17.45;;;;;;;;;;5057972;28;20021;-85
2021/12/06 08:35:01;;;;;;;22.73;15.40;;;;;;;;;;5057670;28;20023;-83
2021/12/06 08:37:27;;;;;;;20.35;14.73;;;;;;;;;;5056837;28;20045;-83
2021/12/06 08:39:53;;;;;;;25.60;16.98;;;;;;;;;;5057552;28;20029;-83
2021/12/06 08:42:41;;;;;;;30.88;18.30;;;;;;;;;;5057311;28;20041;-82
2021/12/06 08:45:07;;;;;;;32.78;18.58;;;;;;;;;;5057785;28;20025;-84
2021/12/06 08:47:33;;;;;;;35.05;21.10;;;;;;;;;;5057689;28;20025;-84
2021/12/06 08:49:59;;;;;;;44.05;27.27;;;;;;;;;;5072503;28;20079;-84
2021/12/06 08:52:26;;;;;;;39.40;21.95;;;;;;;;;;5057547;28;20112;-84
2021/12/06 08:54:52;;;;;;;28.27;19.13;;;;;;;;;;5057128;28;20116;-84
2021/12/06 08:57:18;;;;;;;27.45;16.27;;;;;;;;;;5057447;28;20033;-84
2021/12/06 08:59:45;;;;;;;23.95;16.05;;;;;;;;;;5057619;28;20033;-85
2021/12/06 09:02:11;;;;;;;28.00;16.85;;;;;;;;;;5057746;28;20066;-85
2021/12/06 09:04:39;;;;;;;25.00;17.00;;;;;;;;;;5056998;28;20029;-83
2021/12/06 09:07:11;;;;;;;29.45;18.88;;;;;;;;;;5056944;28;20033;-83
2021/12/06 09:09:37;;;;;;;33.63;21.42;;;;;;;;;;5055288;28;20033;-83
2021/12/06 09:12:04;;;;;;;30.58;19.20;;;;;;;;;;5069597;28;20025;-84
2021/12/06 09:14:30;;;;;;;25.80;16.85;;;;;;;;;;5056874;28;20035;-83
2021/12/06 09:16:56;;;;;;;29.52;18.67;;;;;;;;;;5058311;28;20036;-85
2021/12/06 09:19:22;;;;;;;40.22;25.20;;;;;;;;;;5065247;28;20227;-86
2021/12/06 09:21:48;;;;;;;30.50;20.75;;;;;;;;;;5057217;28;20041;-84
2021/12/06 09:24:16;;;;;;;29.27;18.10;;;;;;;;;;5057276;28;20032;-85
2021/12/06 09:27:01;;;;;;;31.05;21.85;;;;;;;;;;5056764;28;20067;-85
2021/12/06 09:29:27;;;;;;;24.02;15.68;;;;;;;;;;5038577;28;20097;-86
2021/12/06 09:31:59;;;;;;;24.67;15.93;;;;;;;;;;5057516;28;20025;-87
2021/12/06 09:34:25;;;;;;;23.23;14.23;;;;;;;;;;5039450;28;20033;-85
2021/12/06 09:36:51;;;;;;;23.88;15.93;;;;;;;;;;5057233;28;20045;-85
2021/12/06 09:39:17;;;;;;;25.75;16.85;;;;;;;;;;5056752;28;20039;-85
2021/12/06 09:41:44;;;;;;;26.13;16.10;;;;;;;;;;5056511;28;20045;-84
2021/12/06 09:44:10;;;;;;;21.80;14.90;;;;;;;;;;5057087;28;20025;-84
2021/12/06 09:46:38;;;;;;;25.05;15.80;;;;;;;;;;5056668;28;20040;-83
2021/12/06 09:49:07;;;;;;;35.80;19.30;;;;;;;;;;5059590;28;20029;-85
2021/12/06 09:51:33;;;;;;;30.92;18.50;;;;;;;;;;5061058;28;20044;-84
2021/12/06 09:54:00;;;;;;;26.75;17.08;;;;;;;;;;5060989;28;20024;-85
2021/12/06 09:56:31;;;;;;;36.78;18.83;;;;;;;;;;5060873;28;20040;-84
2021/12/06 09:59:00;;;;;;;31.95;18.58;;;;;;;;;;5060923;28;20071;-84
2021/12/06 10:01:31;;;;;;;32.00;18.67;;;;;;;;;;5060589;28;20052;-85
2021/12/06 10:03:58;;;;;;;35.00;19.73;;;;;;;;;;5060774;28;20029;-84
2021/12/06 10:06:26;;;;;;;29.73;18.05;;;;;;;;;;5060596;28;20025;-84
2021/12/06 10:08:53;;;;;;;33.03;19.75;;;;;;;;;;5060347;28;20025;-87
2021/12/06 10:11:21;;;;;;;31.23;19.52;;;;;;;;;;5060597;28;20032;-86
2021/12/06 10:13:47;;;;;;;35.20;20.60;;;;;;;;;;5076646;28;20021;-86
2021/12/06 10:16:13;;;;;;;40.60;22.30;;;;;;;;;;5060729;28;20080;-86
2021/12/06 10:18:40;;;;;;;44.78;23.13;;;;;;;;;;5060618;28;20033;-86
2021/12/06 10:21:07;;;;;;;37.85;21.25;;;;;;;;;;5060459;28;20040;-85
2021/12/06 10:23:37;;;;;;;41.90;24.55;;;;;;;;;;5060339;28;20048;-86
2021/12/06 10:26:04;;;;;;;39.60;24.70;;;;;;;;;;5060499;28;20036;-86
2021/12/06 10:28:31;;;;;;;39.33;23.80;;;;;;;;;;5060515;28;20048;-86
2021/12/06 10:31:01;;;;;;;37.95;21.90;;;;;;;;;;5075678;28;20048;-89
2021/12/06 10:33:29;;;;;;;39.20;22.88;;;;;;;;;;5076195;28;20075;-87
2021/12/06 10:35:56;;;;;;;35.28;21.05;;;;;;;;;;5060323;28;20047;-88
2021/12/06 10:38:32;;;;;;;41.63;22.50;;;;;;;;;;5076158;28;20044;-88
2021/12/06 10:41:00;;;;;;;42.97;23.20;;;;;;;;;;5060069;28;20025;-88
2021/12/06 10:43:26;;;;;;;42.40;22.58;;;;;;;;;;5060025;28;20028;-87
2021/12/06 10:45:54;;;;;;;40.80;23.40;;;;;;;;;;5059352;28;20052;-86
2021/12/06 10:48:30;;;;;;;46.45;26.92;;;;;;;;;;5059967;28;20017;-87
2021/12/06 10:50:58;;;;;;;43.58;25.25;;;;;;;;;;5059968;28;20048;-87
2021/12/06 10:53:38;;;;;;;42.55;25.50;;;;;;;;;;5058887;28;20029;-87
2021/12/06 10:56:14;;;;;;;41.55;23.10;;;;;;;;;;5042686;28;20033;-88
2021/12/06 10:58:40;;;;;;;39.35;22.88;;;;;;;;;;5059742;28;20025;-88
2021/12/06 11:01:06;;;;;;;41.30;23.27;;;;;;;;;;5059077;28;20032;-88
2021/12/06 11:03:42;;;;;;;32.90;20.88;;;;;;;;;;5075329;28;20115;-90
2021/12/06 11:06:11;;;;;;;37.13;22.67;;;;;;;;;;5058144;28;20481;-88
2021/12/06 11:08:38;;;;;;;46.72;26.40;;;;;;;;;;5059573;28;20036;-85
2021/12/06 11:11:07;;;;;;;41.90;23.98;;;;;;;;;;5059866;28;20021;-85
2021/12/06 11:13:34;;;;;;;39.58;24.05;;;;;;;;;;5059625;28;20066;-86
2021/12/06 11:16:05;;;;;;;40.13;23.90;;;;;;;;;;5074745;28;20040;-86
2021/12/06 11:18:31;;;;;;;32.10;20.55;;;;;;;;;;5059388;28;20103;-86
2021/12/06 11:20:57;;;;;;;38.97;21.35;;;;;;;;;;5074814;28;20334;-86
2021/12/06 11:23:23;;;;;;;32.42;20.63;;;;;;;;;;5059278;28;20029;-85
2021/12/06 11:26:01;;;;;;;54.92;27.38;;;;;;;;;;5074907;28;20025;-85
2021/12/06 11:28:29;;;;;;;40.70;23.30;;;;;;;;;;5059010;28;20087;-85
2021/12/06 11:31:03;;;;;;;43.15;26.23;;;;;;;;;;5058821;28;20346;-85
2021/12/06 11:33:30;;;;;;;43.20;24.73;;;;;;;;;;5059125;28;20024;-86
2021/12/06 11:35:57;;;;;;;54.80;31.33;;;;;;;;;;5057405;28;20029;-85
2021/12/06 11:38:23;;;;;;;60.10;33.25;;;;;;;;;;5059221;28;20359;-85
2021/12/06 11:40:49;;;;;;;56.67;31.42;;;;;;;;;;5058814;28;20031;-86
2021/12/06 11:43:17;;;;;;;47.45;27.17;;;;;;;;;;5059060;28;20040;-86
2021/12/06 11:45:58;;;;;;;55.80;31.88;;;;;;;;;;5058949;28;20048;-85
2021/12/06 11:48:32;;;;;;;34.10;19.85;;;;;;;;;;5058984;28;20045;-86
2021/12/06 11:51:09;;;;;;;46.42;24.63;;;;;;;;;;5058955;28;20025;-85
2021/12/06 11:54:11;;;;;;;39.35;21.60;;;;;;;;;;5041163;28;20052;-86
2021/12/06 11:56:44;;;;;;;39.53;22.17;;;;;;;;;;4942800;29;20114;-86
2021/12/06 11:59:11;;;;;;;34.90;21.45;;;;;;;;;;4958961;29;20083;-85
2021/12/06 12:01:39;;;;;;;44.45;25.75;;;;;;;;;;4958993;29;20087;-85
2021/12/06 12:04:07;;;;;;;39.70;23.25;;;;;;;;;;4958895;29;20035;-85
2021/12/06 12:06:35;;;;;;;33.25;19.48;;;;;;;;;;4942535;29;20049;-86
2021/12/06 12:09:04;;;;;;;38.20;20.90;;;;;;;;;;4958940;29;20351;-85
2021/12/06 12:11:31;;;;;;;43.35;24.45;;;;;;;;;;4957892;28;20824;-86
2021/12/06 12:13:58;;;;;;;45.13;25.58;;;;;;;;;;4958678;29;20019;-86
2021/12/06 12:16:24;;;;;;;44.80;24.98;;;;;;;;;;4958749;29;20023;-86
2021/12/06 12:18:50;;;;;;;39.13;23.33;;;;;;;;;;4942315;29;20035;-85
2021/12/06 12:21:17;;;;;;;52.05;25.10;;;;;;;;;;4942355;29;20299;-85
2021/12/06 12:23:43;;;;;;;36.28;20.00;;;;;;;;;;4958487;29;20039;-85
2021/12/06 12:26:13;;;;;;;37.38;21.40;;;;;;;;;;4958496;29;20532;-86
2021/12/06 12:31:16;;;;;;;38.05;23.30;;;;;;;;;;5037867;28;20025;-85
2021/12/06 12:33:43;;;;;;;37.25;23.27;;;;;;;;;;5040418;28;20027;-86
2021/12/06 12:36:11;;;;;;;37.72;23.10;;;;;;;;;;5058048;28;20292;-86
2021/12/06 12:38:38;;;;;;;32.85;21.80;;;;;;;;;;5058042;28;20029;-86
2021/12/06 12:41:09;;;;;;;37.72;21.75;;;;;;;;;;5057586;28;20033;-86
2021/12/06 12:43:39;;;;;;;34.17;20.77;;;;;;;;;;5057904;28;20112;-85
2021/12/06 12:46:10;;;;;;;32.63;20.55;;;;;;;;;;5058031;28;20322;-86
2021/12/06 12:48:47;;;;;;;30.30;19.23;;;;;;;;;;5057640;28;20025;-85
2021/12/06 12:51:16;;;;;;;27.88;18.92;;;;;;;;;;5057804;28;20100;-85
2021/12/06 12:53:48;;;;;;;32.50;20.45;;;;;;;;;;5057602;28;20025;-85
2021/12/06 12:56:18;;;;;;;33.90;19.00;;;;;;;;;;5057380;28;20411;-85
2021/12/06 12:58:44;;;;;;;32.35;20.20;;;;;;;;;;5039959;28;20119;-86
2021/12/06 13:01:13;;;;;;;36.22;21.05;;;;;;;;;;5057459;28;20025;-85
2021/12/06 13:03:39;;;;;;;38.30;22.63;;;;;;;;;;5057488;28;20021;-86
2021/12/06 13:06:17;;;;;;;40.42;25.35;;;;;;;;;;5039755;28;20370;-86
2021/12/06 13:08:44;;;;;;;45.17;25.38;;;;;;;;;;5039396;28;20331;-86
2021/12/06 13:11:10;;;;;;;41.33;25.13;;;;;;;;;;5057589;28;20049;-86
2021/12/06 13:13:44;;;;;;;39.83;21.90;;;;;;;;;;5038860;28;20029;-86
2021/12/06 13:16:48;;;;;;;33.83;19.95;;;;;;;;;;5057474;28;20028;-86
2021/12/06 13:19:14;;;;;;;36.20;22.20;;;;;;;;;;5056533;28;20315;-86
2021/12/06 13:21:49;;;;;;;34.03;19.65;;;;;;;;;;5057184;28;20025;-86
2021/12/06 13:24:18;;;;;;;29.40;18.77;;;;;;;;;;5063969;28;20021;-86
2021/12/06 13:26:44;;;;;;;29.52;17.75;;;;;;;;;;5064075;28;20312;-85
2021/12/06 13:29:15;;;;;;;31.90;18.40;;;;;;;;;;5046243;28;20035;-86
2021/12/06 13:31:41;;;;;;;55.30;24.20;;;;;;;;;;5064023;28;20059;-86
2021/12/06 13:34:21;;;;;;;43.92;22.45;;;;;;;;;;5063960;28;20096;-85
2021/12/06 13:36:50;;;;;;;85.78;32.00;;;;;;;;;;5045818;28;20041;-86
2021/12/06 13:39:31;;;;;;;100.90;34.58;;;;;;;;;;5063900;28;20058;-86
2021/12/06 13:41:58;;;;;;;46.92;25.90;;;;;;;;;;5063335;28;20350;-86
2021/12/06 13:44:45;;;;;;;31.20;20.30;;;;;;;;;;5063746;28;20028;-86
2021/12/06 13:47:13;;;;;;;33.03;20.40;;;;;;;;;;5063766;28;20112;-86
2021/12/06 13:50:11;;;;;;;34.50;21.58;;;;;;;;;;5063789;28;20126;-85
2021/12/06 13:52:40;;;;;;;38.72;21.80;;;;;;;;;;4963767;28;20098;-86
2021/12/06 13:55:21;;;;;;;34.75;20.00;;;;;;;;;;4963891;28;20192;-86
2021/12/06 13:57:49;;;;;;;37.58;21.52;;;;;;;;;;4963746;29;20030;-86
2021/12/06 14:00:23;;;;;;;34.70;21.15;;;;;;;;;;4963526;29;20031;-86
2021/12/06 14:02:50;;;;;;;34.20;20.67;;;;;;;;;;4963628;29;20074;-86
2021/12/06 14:05:16;;;;;;;34.88;20.77;;;;;;;;;;4963812;28;20030;-84
2021/12/06 14:07:43;;;;;;;35.88;20.13;;;;;;;;;;4963429;28;20035;-86
2021/12/06 14:10:13;;;;;;;36.35;20.33;;;;;;;;;;4963753;28;20023;-86
2021/12/06 14:12:41;;;;;;;38.17;22.05;;;;;;;;;;4963475;28;20055;-86
2021/12/06 14:15:17;;;;;;;37.30;20.98;;;;;;;;;;4963616;29;20046;-86
2021/12/06 14:17:44;;;;;;;35.25;21.77;;;;;;;;;;4963722;28;20418;-86
2021/12/06 14:20:11;;;;;;;38.45;20.73;;;;;;;;;;4947529;29;20126;-86
2021/12/06 14:22:38;;;;;;;41.17;21.70;;;;;;;;;;4963564;29;20090;-86
2021/12/06 14:25:05;;;;;;;42.03;23.10;;;;;;;;;;4947420;29;20119;-86
2021/12/06 14:27:36;;;;;;;41.30;23.10;;;;;;;;;;4987441;28;20087;-86
2021/12/06 14:30:03;;;;;;;45.72;23.92;;;;;;;;;;5063358;28;20039;-86
2021/12/06 14:32:29;;;;;;;40.00;23.45;;;;;;;;;;5045055;28;20358;-86
2021/12/06 14:34:56;;;;;;;42.40;22.63;;;;;;;;;;5060281;28;20025;-85
2021/12/06 14:37:23;;;;;;;45.88;23.42;;;;;;;;;;5060419;28;20041;-86
2021/12/06 14:39:56;;;;;;;43.45;22.70;;;;;;;;;;5042682;28;20093;-86
2021/12/06 14:42:22;;;;;;;44.50;22.55;;;;;;;;;;5059992;28;20068;-85
2021/12/06 14:44:52;;;;;;;40.92;23.10;;;;;;;;;;5060100;28;20025;-86
2021/12/06 14:47:21;;;;;;;41.15;23.65;;;;;;;;;;5042128;28;20037;-86
2021/12/06 14:49:48;;;;;;;43.00;24.83;;;;;;;;;;5042424;28;20477;-85
2021/12/06 14:52:22;;;;;;;39.45;23.23;;;;;;;;;;5041812;28;20029;-86
2021/12/06 14:55:26;;;;;;;48.30;24.95;;;;;;;;;;5047045;28;20018;-86